createdAt,value
2023-02-27T06:42:32.820Z,1.79
2023-02-27T06:47:34.937Z,1.83
2023-02-27T06:52:38.541Z,1.98
2023-02-27T06:57:40.629Z,2.25
2023-02-27T07:02:42.763Z,2.31
2023-02-27T07:07:44.857Z,2.32
2023-02-27T07:12:46.939Z,2.41
2023-02-27T07:17:49.014Z,2.63
2023-02-27T07:22:51.081Z,2.72
2023-02-27T07:27:53.196Z,2.87
2023-02-27T07:32:55.266Z,2.98
2023-02-27T07:37:57.320Z,3.13
2023-02-27T07:42:59.924Z,3.40
2023-02-27T07:48:02.095Z,3.24
2023-02-27T07:53:05.454Z,3.32
2023-02-27T07:58:07.520Z,3.52
2023-02-27T08:03:10.359Z,3.75
2023-02-27T08:08:12.469Z,3.85
2023-02-27T08:13:16.716Z,3.91
2023-02-27T08:18:18.831Z,4.28
2023-02-27T08:23:20.919Z,4.48
2023-02-27T08:28:23.031Z,4.36
2023-02-27T08:33:25.381Z,4.39
2023-02-27T08:38:27.516Z,4.32
2023-02-27T08:43:29.599Z,4.32
2023-02-27T08:48:31.700Z,4.43
2023-02-27T08:53:33.754Z,4.55
2023-02-27T08:58:36.011Z,4.61
2023-02-27T09:03:38.112Z,4.66
2023-02-27T09:08:40.196Z,4.89
2023-02-27T09:13:42.399Z,5.18
2023-02-27T09:18:44.625Z,5.27
2023-02-27T09:23:46.868Z,5.51
2023-02-27T09:28:49.633Z,5.50
2023-02-27T09:33:51.731Z,5.52
2023-02-27T09:38:54.061Z,5.36
2023-02-27T10:02:00.932Z,6.44
2023-02-27T10:07:12.394Z,6.59
2023-02-27T10:12:27.328Z,6.93
2023-02-27T10:17:35.444Z,6.84
2023-02-27T10:22:43.200Z,6.85
2023-02-27T10:27:50.200Z,6.75
2023-02-27T10:32:57.320Z,6.95
2023-02-27T10:38:03.079Z,7.42
2023-02-27T10:43:06.502Z,7.82
2023-02-27T10:48:09.131Z,8.40
2023-02-27T10:53:23.421Z,8.63
2023-02-27T10:58:28.597Z,8.17
2023-02-27T11:03:38.668Z,7.91
2023-02-27T11:08:43.909Z,8.09
2023-02-27T11:13:46.001Z,9.46
2023-02-27T11:18:50.206Z,10.53
2023-02-27T11:23:58.309Z,11.71
2023-02-27T11:29:18.901Z,12.66
2023-02-27T11:34:26.942Z,13.42
2023-02-27T11:39:31.113Z,10.99
2023-02-27T11:44:50.351Z,9.67
2023-02-27T11:50:16.824Z,10.11
2023-02-27T11:55:27.861Z,9.58
2023-02-27T12:00:37.808Z,9.92
2023-02-27T12:06:13.361Z,12.26
2023-02-27T12:11:29.291Z,15.95
2023-02-27T12:16:40.555Z,17.25
2023-02-27T12:21:54.254Z,14.71
2023-02-27T12:27:11.691Z,14.85
2023-02-27T12:32:36.737Z,14.35
2023-02-27T12:37:39.207Z,13.72
2023-02-27T12:43:11.837Z,12.63
2023-02-27T12:48:57.849Z,12.99
2023-02-27T12:54:12.181Z,11.72
2023-02-27T12:59:46.241Z,11.91
2023-02-27T13:05:09.430Z,13.85
2023-02-27T13:10:31.393Z,14.20
2023-02-27T13:15:42.724Z,13.67
2023-02-27T13:20:51.271Z,13.05
2023-02-27T13:25:56.782Z,11.43
2023-02-27T13:31:12.691Z,9.91
2023-02-27T13:36:24.740Z,9.39
2023-02-27T13:41:36.099Z,13.63
2023-02-27T13:46:38.348Z,14.60
2023-02-27T13:51:43.524Z,11.77
2023-02-27T13:56:48.312Z,9.97
2023-02-27T14:02:03.319Z,8.76
2023-02-27T14:07:15.425Z,8.25
2023-02-27T14:12:44.432Z,8.26
2023-02-27T14:17:54.622Z,8.88
2023-02-27T14:23:17.129Z,8.93
2023-02-27T14:28:32.375Z,8.94
2023-02-27T14:33:46.281Z,8.95
2023-02-27T14:38:50.588Z,8.63
2023-02-27T14:43:56.785Z,8.99
2023-02-27T14:49:20.050Z,9.43
2023-02-27T14:54:28.002Z,11.06
2023-02-27T14:59:41.800Z,14.01
2023-02-27T15:04:45.658Z,18.09
2023-02-27T15:09:49.209Z,19.74
2023-02-27T15:14:55.227Z,20.06
2023-02-27T15:19:59.525Z,19.68
2023-02-27T15:25:04.610Z,20.83
2023-02-27T15:30:07.833Z,20.87
2023-02-27T15:35:19.733Z,19.53
2023-02-27T15:40:30.429Z,18.32
2023-02-27T15:45:35.729Z,17.21
2023-02-27T15:50:38.374Z,12.64
2023-02-27T15:55:49.873Z,9.93
2023-02-27T16:01:02.238Z,8.31
2023-02-27T16:06:30.582Z,7.39
2023-02-27T16:11:35.682Z,6.65
2023-02-27T16:16:38.955Z,6.14
2023-02-27T16:22:27.320Z,5.89
2023-02-27T16:27:31.835Z,5.40
2023-02-27T16:32:42.143Z,5.21
2023-02-27T16:37:46.067Z,4.88
2023-02-27T16:42:48.530Z,4.80
2023-02-27T16:47:53.748Z,4.48
2023-02-27T16:52:56.214Z,4.43
2023-02-27T16:57:58.297Z,4.29
2023-02-27T17:03:01.154Z,3.95
2023-02-27T17:08:03.350Z,3.85
2023-02-27T17:13:05.455Z,3.79
2023-02-27T17:18:09.337Z,3.64
2023-02-27T17:23:14.293Z,3.59
2023-02-27T17:28:16.533Z,3.45
2023-02-27T17:33:18.633Z,3.26
2023-02-27T17:38:21.378Z,3.14
2023-02-27T17:43:23.562Z,3.07
2023-02-27T17:48:25.773Z,2.96
2023-02-27T17:53:27.837Z,2.92
2023-02-27T17:58:30.149Z,2.92
2023-02-27T18:03:33.167Z,2.77
2023-02-27T18:08:35.724Z,2.76
2023-02-27T18:13:38.902Z,2.73
2023-02-27T18:18:42.585Z,2.59
2023-02-27T18:23:44.963Z,2.60
2023-02-27T18:28:48.893Z,2.49
2023-02-27T18:33:51.435Z,2.47
2023-02-27T18:38:53.544Z,2.34
2023-02-27T18:43:55.699Z,2.28
2023-02-27T18:48:58.312Z,2.14
2023-02-27T18:54:00.852Z,2.08
2023-02-27T18:59:05.284Z,1.88
2023-02-27T19:04:09.567Z,1.79
2023-02-27T19:09:16.125Z,1.70
2023-02-27T19:14:18.343Z,1.71
2023-02-27T19:19:20.523Z,1.53
2023-02-27T19:24:23.038Z,1.60
2023-02-27T19:29:25.140Z,1.45
2023-02-27T19:34:27.367Z,1.33
2023-02-27T19:39:29.490Z,1.35
2023-02-27T19:44:31.587Z,1.31
2023-02-27T19:49:33.709Z,1.26
2023-02-27T19:54:35.871Z,1.24
2023-02-27T19:59:39.369Z,1.27
2023-02-27T20:04:41.513Z,1.22
2023-02-27T20:09:43.725Z,1.30
2023-02-27T20:14:45.815Z,1.29
2023-02-27T20:19:47.906Z,1.30
2023-02-27T20:24:50.006Z,1.34
2023-02-27T20:29:55.118Z,1.27
2023-02-27T20:34:57.245Z,1.02
2023-02-27T20:39:59.454Z,1.10
2023-02-27T20:45:01.540Z,1.03
2023-02-27T20:50:03.688Z,1.01
2023-02-27T20:55:06.245Z,0.84
2023-02-27T21:00:12.556Z,0.88
2023-02-27T21:05:14.826Z,0.77
2023-02-27T21:10:17.238Z,0.70
2023-02-27T21:15:19.348Z,0.62
2023-02-27T21:20:22.653Z,0.58
2023-02-27T21:25:25.562Z,0.48
2023-02-27T21:30:30.445Z,0.41
2023-02-27T21:35:32.803Z,0.59
2023-02-27T21:40:35.142Z,0.52
2023-02-27T21:45:41.532Z,0.45
2023-02-27T21:50:44.005Z,0.55
2023-02-27T21:55:46.104Z,0.46
2023-02-27T22:00:48.941Z,0.28
